Time;durP1;ratioP1;P1;durP2;ratioP2;P2;SDS_P1;SDS_P2;PMS_P1;PMS_P2;Temp;Humidity;BMP_temperature;BMP_pressure;BME280_temperature;BME280_humidity;BME280_pressure;Samples;Min_cycle;Max_cycle;Signal;HPM_P1;HPM_P2
2022/02/17 00:00:09;;;;;;;0.00;0.00;;;9.70;99.90;;;;;;5050475;28;20041;-87
2022/02/17 00:02:36;;;;;;;0.00;0.00;;;9.70;99.90;;;;;;5050733;28;20051;-85
2022/02/17 00:05:03;;;;;;;0.00;0.00;;;9.70;99.90;;;;;;5034120;28;20472;-85
2022/02/17 00:07:30;;;;;;;0.00;0.00;;;9.70;99.90;;;;;;5033983;28;20127;-86
2022/02/17 00:09:56;;;;;;;0.00;0.00;;;9.80;99.90;;;;;;5034371;28;20045;-85
2022/02/17 00:12:23;;;;;;;0.03;0.03;;;9.80;99.90;;;;;;5034534;28;20379;-85
2022/02/17 00:14:50;;;;;;;0.10;0.10;;;9.80;99.90;;;;;;5033831;28;20033;-85
2022/02/17 00:17:16;;;;;;;0.00;0.00;;;9.80;99.90;;;;;;5050476;28;20049;-85
2022/02/17 00:19:43;;;;;;;0.00;0.00;;;9.90;99.90;;;;;;5066018;28;20042;-85
2022/02/17 00:22:10;;;;;;;0.00;0.00;;;9.80;99.90;;;;;;5033830;28;20045;-85
2022/02/17 00:24:37;;;;;;;0.08;0.08;;;9.80;99.90;;;;;;5033529;28;20056;-86
2022/02/17 00:27:04;;;;;;;0.30;0.30;;;9.90;99.90;;;;;;5033934;28;20045;-88
2022/02/17 00:29:30;;;;;;;0.10;0.10;;;9.90;99.90;;;;;;5033413;28;20454;-87
2022/02/17 00:31:57;;;;;;;0.00;0.00;;;9.90;99.90;;;;;;5033703;28;20160;-87
2022/02/17 00:34:24;;;;;;;0.10;0.10;;;9.90;99.90;;;;;;5066741;28;20087;-87
2022/02/17 00:36:51;;;;;;;0.20;0.20;;;10.10;99.90;;;;;;5050121;28;20044;-87
2022/02/17 00:39:18;;;;;;;0.00;0.00;;;10.00;99.90;;;;;;5050040;28;20367;-85
2022/02/17 00:41:45;;;;;;;0.08;0.08;;;10.00;99.90;;;;;;5033509;28;20057;-87
2022/02/17 00:44:13;;;;;;;0.00;0.00;;;10.40;99.90;;;;;;5033650;28;20057;-87
2022/02/17 00:46:40;;;;;;;0.08;0.08;;;10.00;99.90;;;;;;5050097;28;20107;-85
2022/02/17 00:49:09;;;;;;;0.05;0.05;;;10.00;99.90;;;;;;5034248;28;20115;-86
2022/02/17 00:51:36;;;;;;;0.00;0.00;;;9.90;99.90;;;;;;5033342;28;20038;-85
2022/02/17 00:54:03;;;;;;;0.10;0.10;;;9.90;99.90;;;;;;5033716;28;20863;-85
2022/02/17 00:56:30;;;;;;;0.00;0.00;;;9.90;99.90;;;;;;5065925;28;20751;-86
2022/02/17 00:58:57;;;;;;;0.00;0.00;;;9.80;99.90;;;;;;5033548;28;20073;-85
2022/02/17 01:01:23;;;;;;;0.00;0.00;;;9.90;99.90;;;;;;5049871;28;20124;-85
2022/02/17 01:03:50;;;;;;;0.32;0.32;;;9.80;99.90;;;;;;5036136;28;20224;-85
2022/02/17 01:06:17;;;;;;;0.00;0.00;;;9.80;99.90;;;;;;5037541;28;20041;-87
2022/02/17 01:08:44;;;;;;;0.00;0.00;;;9.80;99.90;;;;;;5037561;28;20053;-87
2022/02/17 01:11:10;;;;;;;0.00;0.00;;;10.10;99.90;;;;;;5037826;28;20055;-86
2022/02/17 01:13:37;;;;;;;0.10;0.10;;;9.80;99.90;;;;;;5037530;28;20045;-87
2022/02/17 01:16:04;;;;;;;0.00;0.00;;;9.70;99.90;;;;;;5037436;28;20457;-85
2022/02/17 01:18:31;;;;;;;0.00;0.00;;;9.70;99.90;;;;;;5037085;28;20087;-85
2022/02/17 01:20:58;;;;;;;0.20;0.20;;;9.70;99.90;;;;;;5038192;28;20041;-85
2022/02/17 01:23:24;;;;;;;0.05;0.05;;;9.70;99.90;;;;;;5037077;28;20501;-88
2022/02/17 01:25:51;;;;;;;0.08;0.08;;;9.70;99.90;;;;;;5036925;28;20045;-87
2022/02/17 01:28:18;;;;;;;0.10;0.10;;;9.60;99.90;;;;;;5037471;28;20037;-84
2022/02/17 01:30:45;;;;;;;0.00;0.00;;;9.70;99.90;;;;;;5036983;28;20037;-85
2022/02/17 01:33:12;;;;;;;0.10;0.10;;;9.60;99.90;;;;;;5037279;28;20554;-84
2022/02/17 01:35:38;;;;;;;0.03;0.03;;;9.40;99.90;;;;;;5037146;28;20045;-84
2022/02/17 01:38:05;;;;;;;0.00;0.00;;;9.40;99.90;;;;;;5053512;28;20406;-87
2022/02/17 01:40:35;;;;;;;0.00;0.00;;;9.30;99.90;;;;;;5036971;28;20175;-87
2022/02/17 01:43:01;;;;;;;0.03;0.03;;;9.30;99.90;;;;;;5053136;28;20037;-85
2022/02/17 01:45:28;;;;;;;0.00;0.00;;;9.30;99.90;;;;;;5052990;28;20062;-86
2022/02/17 01:47:55;;;;;;;0.00;0.00;;;9.20;99.90;;;;;;5036147;28;20050;-87
2022/02/17 01:50:22;;;;;;;0.00;0.00;;;9.20;99.90;;;;;;5037012;28;20079;-84
2022/02/17 01:52:48;;;;;;;0.00;0.00;;;9.30;99.90;;;;;;5036572;28;20072;-87
2022/02/17 01:55:15;;;;;;;0.08;0.08;;;9.20;99.90;;;;;;5036803;28;20038;-85
2022/02/17 01:57:42;;;;;;;0.00;0.00;;;9.10;99.90;;;;;;5046488;28;20086;-87
2022/02/17 02:00:11;;;;;;;0.10;0.10;;;9.10;99.90;;;;;;5055906;28;20095;-87
2022/02/17 02:02:38;;;;;;;0.00;0.00;;;9.00;99.90;;;;;;5056504;28;20044;-86
2022/02/17 02:05:05;;;;;;;0.00;0.00;;;9.00;99.90;;;;;;5056122;28;20399;-87
2022/02/17 02:07:32;;;;;;;0.00;0.00;;;9.00;99.90;;;;;;5072936;28;20048;-85
2022/02/17 02:09:59;;;;;;;0.00;0.00;;;9.00;99.90;;;;;;5072918;28;20052;-86
2022/02/17 02:12:26;;;;;;;0.00;0.00;;;8.90;99.90;;;;;;5039472;28;20397;-86
2022/02/17 02:14:54;;;;;;;0.10;0.10;;;8.90;99.90;;;;;;5055039;28;20490;-86
2022/02/17 02:17:23;;;;;;;0.00;0.00;;;8.90;99.90;;;;;;5072405;28;20044;-84
2022/02/17 02:19:50;;;;;;;0.00;0.00;;;8.90;99.90;;;;;;5072427;28;20045;-85
2022/02/17 02:22:17;;;;;;;0.10;0.10;;;8.80;99.90;;;;;;5055895;28;20049;-86
2022/02/17 02:24:44;;;;;;;0.03;0.03;;;8.80;99.90;;;;;;5055048;28;20036;-85
2022/02/17 02:27:15;;;;;;;0.00;0.00;;;8.80;99.90;;;;;;5055616;28;20043;-84
2022/02/17 02:29:43;;;;;;;0.00;0.00;;;8.80;99.90;;;;;;5055366;28;20041;-84
2022/02/17 02:32:11;;;;;;;0.00;0.00;;;8.70;99.90;;;;;;5071994;28;20090;-86
2022/02/17 02:34:37;;;;;;;0.10;0.10;;;8.70;99.90;;;;;;5056001;28;20441;-85
2022/02/17 02:37:06;;;;;;;0.10;0.10;;;8.60;99.90;;;;;;5039357;28;20037;-87
2022/02/17 02:39:33;;;;;;;0.00;0.00;;;8.60;99.90;;;;;;5055924;28;20037;-84
2022/02/17 02:42:01;;;;;;;0.10;0.10;;;8.50;99.90;;;;;;5055160;28;20099;-86
2022/02/17 02:44:28;;;;;;;0.10;0.10;;;8.40;99.90;;;;;;5055520;28;20064;-86
2022/02/17 02:46:55;;;;;;;0.10;0.10;;;8.40;99.90;;;;;;5038621;28;20075;-84
2022/02/17 02:49:22;;;;;;;0.10;0.10;;;8.30;99.90;;;;;;5055971;28;20094;-86
2022/02/17 02:51:49;;;;;;;0.03;0.03;;;8.30;99.90;;;;;;5071814;28;20037;-85
2022/02/17 02:54:17;;;;;;;0.10;0.10;;;8.30;99.90;;;;;;5039102;28;20044;-86
2022/02/17 02:56:44;;;;;;;0.10;0.10;;;8.30;99.90;;;;;;5071034;28;20501;-84
2022/02/17 02:59:10;;;;;;;0.00;0.00;;;8.30;99.90;;;;;;5039254;28;20044;-84
2022/02/17 03:01:37;;;;;;;0.10;0.10;;;8.40;99.90;;;;;;5038950;28;20501;-83
2022/02/17 03:04:04;;;;;;;0.00;0.00;;;8.30;99.90;;;;;;5071193;28;20413;-86
2022/02/17 03:06:31;;;;;;;0.10;0.10;;;8.30;99.90;;;;;;5054778;28;20045;-84
2022/02/17 03:08:58;;;;;;;0.00;0.00;;;8.20;99.90;;;;;;5038483;28;20051;-84
2022/02/17 03:11:25;;;;;;;0.10;0.10;;;8.20;99.90;;;;;;5071317;28;20756;-87
2022/02/17 03:13:52;;;;;;;0.10;0.10;;;8.30;99.90;;;;;;5038426;28;20037;-84
2022/02/17 03:16:19;;;;;;;0.10;0.10;;;8.30;99.90;;;;;;5038891;28;20128;-84
2022/02/17 03:18:45;;;;;;;0.00;0.00;;;8.10;99.90;;;;;;5038153;28;20123;-84
2022/02/17 03:21:12;;;;;;;0.10;0.10;;;8.50;99.90;;;;;;5038628;28;20073;-86
2022/02/17 03:23:39;;;;;;;0.10;0.10;;;8.20;99.90;;;;;;5071217;28;20043;-86
2022/02/17 03:26:07;;;;;;;0.70;0.70;;;8.30;99.90;;;;;;5038071;28;20045;-87
2022/02/17 03:28:33;;;;;;;0.00;0.00;;;8.30;99.90;;;;;;5038826;28;20037;-86
2022/02/17 03:31:00;;;;;;;0.08;0.08;;;8.30;99.90;;;;;;5054425;28;20456;-86
2022/02/17 03:33:27;;;;;;;0.10;0.10;;;8.70;99.90;;;;;;5054672;28;20040;-84
2022/02/17 03:35:53;;;;;;;0.00;0.00;;;8.30;99.90;;;;;;5054511;28;20477;-84
2022/02/17 03:38:20;;;;;;;0.10;0.10;;;8.40;99.90;;;;;;5038142;28;20094;-86
2022/02/17 03:40:47;;;;;;;0.10;0.10;;;8.40;99.90;;;;;;5038123;28;20043;-84
2022/02/17 03:43:13;;;;;;;0.03;0.03;;;8.40;99.90;;;;;;5037490;28;20106;-86
2022/02/17 03:45:40;;;;;;;0.10;0.10;;;8.30;99.90;;;;;;5037816;28;20057;-86
2022/02/17 03:48:07;;;;;;;0.10;0.10;;;8.30;99.90;;;;;;5054393;28;20048;-84
2022/02/17 03:50:34;;;;;;;0.10;0.10;;;8.60;99.90;;;;;;5054217;28;20040;-85
2022/02/17 03:53:00;;;;;;;0.00;0.00;;;8.30;99.90;;;;;;5070239;28;20048;-86
2022/02/17 03:55:27;;;;;;;0.10;0.10;;;8.30;99.90;;;;;;5037735;28;20037;-84
2022/02/17 03:57:54;;;;;;;0.10;0.10;;;8.30;99.90;;;;;;5053627;28;20040;-84
2022/02/17 04:00:20;;;;;;;0.10;0.10;;;8.30;99.90;;;;;;5053844;28;20033;-84
2022/02/17 04:02:47;;;;;;;0.10;0.10;;;8.30;99.90;;;;;;5037437;28;20142;-84
2022/02/17 04:05:14;;;;;;;0.10;0.10;;;8.30;99.90;;;;;;5037490;28;20037;-85
2022/02/17 04:07:41;;;;;;;0.10;0.10;;;8.30;99.90;;;;;;5070250;28;20132;-86
2022/02/17 04:10:07;;;;;;;0.10;0.10;;;8.30;99.90;;;;;;5037241;28;20051;-84
2022/02/17 04:12:34;;;;;;;0.05;0.05;;;8.30;99.90;;;;;;5053563;28;20041;-86
2022/02/17 04:15:02;;;;;;;0.00;0.00;;;8.30;99.90;;;;;;5053200;28;20124;-84
2022/02/17 04:17:29;;;;;;;0.10;0.10;;;8.30;99.90;;;;;;5054069;28;20033;-86
2022/02/17 04:19:55;;;;;;;0.10;0.10;;;8.30;99.90;;;;;;5070005;28;20577;-83
2022/02/17 04:22:22;;;;;;;0.10;0.10;;;8.50;99.90;;;;;;5070406;28;20518;-84
2022/02/17 04:24:49;;;;;;;0.00;0.00;;;8.30;99.90;;;;;;5053519;28;20041;-86
2022/02/17 04:27:16;;;;;;;0.10;0.10;;;8.20;99.90;;;;;;5031486;28;20072;-86
2022/02/17 04:29:43;;;;;;;0.10;0.10;;;8.20;99.90;;;;;;5073643;28;20036;-85
2022/02/17 04:32:10;;;;;;;0.05;0.05;;;8.10;99.90;;;;;;5034090;28;20041;-84
2022/02/17 04:34:37;;;;;;;0.10;0.10;;;8.20;99.90;;;;;;5054006;28;20443;-84
2022/02/17 04:37:05;;;;;;;0.10;0.10;;;8.10;99.90;;;;;;5069392;28;20413;-84
2022/02/17 04:39:32;;;;;;;0.10;0.10;;;8.10;99.90;;;;;;5069860;28;20509;-84
2022/02/17 04:44:55;;;;;;;0.10;0.10;;;8.10;99.90;;;;;;5052814;28;20457;-86
2022/02/17 04:47:21;;;;;;;0.03;0.03;;;8.10;99.90;;;;;;5044620;28;20129;-86
2022/02/17 04:49:48;;;;;;;0.10;0.10;;;8.10;99.90;;;;;;5043538;28;20073;-86
2022/02/17 04:52:15;;;;;;;0.10;0.10;;;8.60;99.90;;;;;;5043129;28;20043;-84
2022/02/17 04:54:42;;;;;;;0.10;0.10;;;8.10;99.90;;;;;;5038725;28;20040;-84
2022/02/17 04:57:09;;;;;;;0.10;0.10;;;8.10;99.90;;;;;;5048148;28;20076;-84
2022/02/17 04:59:36;;;;;;;0.10;0.10;;;8.10;99.90;;;;;;5053037;28;20515;-84
2022/02/17 05:02:04;;;;;;;0.10;0.10;;;8.10;99.90;;;;;;5052619;28;20401;-84
2022/02/17 05:04:31;;;;;;;0.10;0.10;;;8.10;99.90;;;;;;5053963;28;20063;-84
2022/02/17 05:06:58;;;;;;;0.10;0.10;;;8.10;99.90;;;;;;5053245;28;20049;-84
2022/02/17 05:09:24;;;;;;;0.20;0.20;;;8.00;99.90;;;;;;5036804;28;20585;-86
2022/02/17 05:11:51;;;;;;;0.10;0.10;;;8.00;99.90;;;;;;5036600;28;20116;-86
2022/02/17 05:14:18;;;;;;;0.10;0.10;;;8.00;99.90;;;;;;5053080;28;20040;-84
2022/02/17 05:16:44;;;;;;;0.10;0.10;;;8.00;99.90;;;;;;5069167;28;20440;-84
2022/02/17 05:19:11;;;;;;;0.20;0.20;;;8.00;99.90;;;;;;5036809;28;20096;-83
2022/02/17 05:21:38;;;;;;;0.10;0.10;;;8.00;99.90;;;;;;5036998;28;20141;-86
2022/02/17 05:24:05;;;;;;;0.10;0.10;;;8.00;99.90;;;;;;5052759;28;20508;-84
2022/02/17 05:26:32;;;;;;;0.10;0.10;;;8.00;99.90;;;;;;5036545;28;20044;-84
2022/02/17 05:28:59;;;;;;;0.00;0.00;;;8.00;99.90;;;;;;5069284;28;20110;-84
2022/02/17 05:31:29;;;;;;;0.10;0.10;;;8.20;99.90;;;;;;5035800;28;20041;-83
2022/02/17 05:33:56;;;;;;;0.00;0.00;;;8.00;99.90;;;;;;5038011;28;20033;-85
2022/02/17 05:36:22;;;;;;;0.10;0.10;;;8.00;99.90;;;;;;5053212;28;20401;-86
2022/02/17 05:38:49;;;;;;;0.10;0.10;;;7.90;99.90;;;;;;5053332;28;20374;-84
2022/02/17 05:41:16;;;;;;;0.10;0.10;;;8.00;99.90;;;;;;5018611;28;20072;-86
2022/02/17 05:43:42;;;;;;;0.10;0.10;;;8.00;99.90;;;;;;5051429;28;20391;-84
2022/02/17 05:46:09;;;;;;;0.10;0.10;;;8.00;99.90;;;;;;5016736;28;20066;-84
2022/02/17 05:48:36;;;;;;;0.05;0.05;;;8.00;99.90;;;;;;5017086;28;20107;-84
2022/02/17 05:51:03;;;;;;;0.15;0.15;;;7.90;99.90;;;;;;5019872;28;20048;-84
2022/02/17 05:53:29;;;;;;;0.10;0.10;;;8.00;99.90;;;;;;5036620;28;20041;-86
2022/02/17 05:55:56;;;;;;;0.10;0.10;;;8.00;99.90;;;;;;5020136;28;20482;-84
2022/02/17 05:58:23;;;;;;;0.10;0.10;;;8.00;99.90;;;;;;5020213;28;20042;-87
2022/02/17 06:00:49;;;;;;;2.72;2.00;;;7.90;99.90;;;;;;5037187;28;20077;-86
2022/02/17 06:03:16;;;;;;;0.10;0.10;;;8.00;99.90;;;;;;5020227;28;20099;-86
2022/02/17 06:05:43;;;;;;;0.10;0.10;;;7.90;99.90;;;;;;5036765;28;20041;-86
2022/02/17 06:08:09;;;;;;;0.10;0.10;;;8.20;99.90;;;;;;5020212;28;20132;-86
2022/02/17 06:10:36;;;;;;;0.10;0.10;;;7.90;99.90;;;;;;5036149;28;20857;-84
2022/02/17 06:13:03;;;;;;;0.10;0.10;;;7.90;99.90;;;;;;5019900;28;20048;-84
2022/02/17 06:15:30;;;;;;;0.00;0.00;;;7.90;99.90;;;;;;5052065;28;20398;-86
2022/02/17 06:17:57;;;;;;;0.10;0.10;;;7.90;99.90;;;;;;5020372;28;20556;-85
2022/02/17 06:20:24;;;;;;;0.30;0.30;;;7.90;99.90;;;;;;5051882;28;20033;-84
2022/02/17 06:22:51;;;;;;;1.38;0.52;;;7.90;99.90;;;;;;5019705;28;20148;-85
2022/02/17 06:25:19;;;;;;;0.10;0.10;;;7.90;99.90;;;;;;5052156;28;20045;-84
2022/02/17 06:27:47;;;;;;;0.10;0.10;;;7.90;99.90;;;;;;5035696;28;20126;-84
2022/02/17 06:30:15;;;;;;;0.00;0.00;;;7.90;99.90;;;;;;5051487;28;20041;-84
2022/02/17 06:32:48;;;;;;;0.10;0.10;;;7.90;99.90;;;;;;5035989;28;20081;-84
2022/02/17 06:35:18;;;;;;;0.00;0.00;;;7.90;99.90;;;;;;5051891;28;20071;-86
2022/02/17 06:37:45;;;;;;;0.10;0.10;;;8.20;99.90;;;;;;5068354;28;20473;-85
2022/02/17 06:40:12;;;;;;;0.10;0.10;;;7.80;99.90;;;;;;5035767;28;20064;-83
2022/02/17 06:42:40;;;;;;;0.10;0.10;;;7.90;99.90;;;;;;5051507;28;20044;-84
2022/02/17 06:45:07;;;;;;;0.10;0.10;;;7.80;99.90;;;;;;5051167;28;20057;-84
2022/02/17 06:47:34;;;;;;;0.10;0.10;;;7.80;99.90;;;;;;5034858;28;20057;-83
2022/02/17 06:50:01;;;;;;;0.10;0.10;;;7.80;99.90;;;;;;5018617;28;20099;-86
2022/02/17 06:52:28;;;;;;;0.10;0.10;;;7.80;99.90;;;;;;5037814;28;20132;-84
2022/02/17 06:54:54;;;;;;;0.00;0.00;;;7.70;99.90;;;;;;5051422;28;20473;-85
2022/02/17 06:57:22;;;;;;;0.10;0.10;;;7.70;99.90;;;;;;5022110;28;20037;-86
2022/02/17 06:59:52;;;;;;;0.22;0.22;;;7.70;99.90;;;;;;5040798;28;20152;-83
2022/02/17 07:02:26;;;;;;;0.00;0.00;;;7.70;99.90;;;;;;5049412;28;20049;-83
2022/02/17 07:04:53;;;;;;;0.10;0.10;;;7.70;99.90;;;;;;5038912;28;20033;-84
2022/02/17 07:07:20;;;;;;;0.63;0.63;;;7.70;99.90;;;;;;5047783;28;20069;-85
2022/02/17 07:09:47;;;;;;;0.10;0.10;;;7.70;99.90;;;;;;5071574;28;20032;-83
2022/02/17 07:12:14;;;;;;;0.10;0.10;;;7.70;99.90;;;;;;5063447;28;20447;-84
2022/02/17 07:14:41;;;;;;;0.00;0.00;;;8.00;99.90;;;;;;5046685;28;20040;-84
2022/02/17 07:17:09;;;;;;;0.10;0.10;;;7.70;99.90;;;;;;5063760;28;20739;-86
2022/02/17 07:19:35;;;;;;;0.10;0.10;;;7.70;99.90;;;;;;5067323;28;20040;-85
2022/02/17 07:22:03;;;;;;;0.00;0.00;;;7.60;99.90;;;;;;5040923;28;20042;-86
2022/02/17 07:24:30;;;;;;;0.10;0.10;;;7.60;99.90;;;;;;5052074;28;20046;-84
2022/02/17 07:26:57;;;;;;;0.10;0.10;;;7.60;99.90;;;;;;5034657;28;20046;-85
2022/02/17 07:29:23;;;;;;;0.10;0.10;;;7.60;99.90;;;;;;5034262;28;20041;-83
2022/02/17 07:31:52;;;;;;;0.10;0.10;;;7.60;99.90;;;;;;5034647;28;20191;-83
2022/02/17 07:34:19;;;;;;;0.10;0.10;;;7.60;99.90;;;;;;5044582;28;20037;-86
2022/02/17 07:36:46;;;;;;;0.10;0.10;;;7.60;99.90;;;;;;5062474;28;20033;-86
2022/02/17 07:39:14;;;;;;;0.10;0.10;;;7.80;99.90;;;;;;5046503;28;20698;-86
2022/02/17 07:41:40;;;;;;;0.10;0.10;;;7.60;99.90;;;;;;5043954;28;20076;-85
2022/02/17 07:44:08;;;;;;;0.10;0.10;;;7.60;99.90;;;;;;5056027;28;20435;-83
2022/02/17 07:46:35;;;;;;;0.10;0.10;;;7.60;99.90;;;;;;5061929;28;20036;-84
2022/02/17 07:49:02;;;;;;;0.10;0.10;;;7.60;99.90;;;;;;5078762;28;20037;-86
2022/02/17 07:51:29;;;;;;;0.00;0.00;;;7.50;99.90;;;;;;5036863;28;20534;-86
2022/02/17 07:53:56;;;;;;;0.10;0.10;;;7.50;99.90;;;;;;5034255;28;20076;-85
2022/02/17 07:56:23;;;;;;;0.10;0.10;;;7.50;99.90;;;;;;5033750;28;20048;-85
2022/02/17 07:58:50;;;;;;;0.03;0.03;;;7.50;99.90;;;;;;5050849;28;20048;-84
2022/02/17 08:01:18;;;;;;;0.10;0.10;;;7.40;99.90;;;;;;5034116;28;20486;-86
2022/02/17 08:03:45;;;;;;;0.10;0.10;;;7.40;99.90;;;;;;5050745;28;20052;-84
2022/02/17 08:06:12;;;;;;;0.10;0.10;;;7.50;99.90;;;;;;5048444;28;20513;-84
2022/02/17 08:08:41;;;;;;;0.10;0.10;;;7.40;99.90;;;;;;5017502;28;20038;-84
2022/02/17 08:11:08;;;;;;;0.10;0.10;;;7.40;99.90;;;;;;5027565;28;20102;-86
2022/02/17 08:13:34;;;;;;;0.10;0.10;;;7.50;99.90;;;;;;5047221;28;20036;-86
2022/02/17 08:16:04;;;;;;;0.10;0.10;;;7.40;99.90;;;;;;5037359;28;20067;-84
2022/02/17 08:18:31;;;;;;;0.00;0.00;;;7.70;99.90;;;;;;5037262;28;20076;-87
2022/02/17 08:20:57;;;;;;;0.10;0.10;;;7.40;99.90;;;;;;5017844;28;20490;-83
2022/02/17 08:23:24;;;;;;;2.10;1.00;;;7.40;99.90;;;;;;5065775;28;20560;-87
2022/02/17 08:25:51;;;;;;;0.10;0.10;;;7.40;99.90;;;;;;5036500;28;20045;-83
2022/02/17 08:28:18;;;;;;;0.00;0.00;;;7.40;99.90;;;;;;5036913;28;20490;-85
2022/02/17 08:30:45;;;;;;;0.10;0.10;;;7.40;99.90;;;;;;5052805;28;20102;-88
2022/02/17 08:33:12;;;;;;;0.00;0.00;;;7.20;99.90;;;;;;5045638;28;20473;-87
2022/02/17 08:35:39;;;;;;;0.10;0.10;;;7.90;99.90;;;;;;5049934;28;20040;-87
2022/02/17 08:38:06;;;;;;;0.10;0.10;;;7.20;99.90;;;;;;5035730;28;20799;-87
2022/02/17 08:40:32;;;;;;;0.10;0.10;;;7.20;99.90;;;;;;5038064;28;20080;-86
2022/02/17 08:43:08;;;;;;;0.10;0.10;;;7.20;99.90;;;;;;5033266;28;20087;-83
2022/02/17 08:45:37;;;;;;;0.10;0.10;;;7.20;99.90;;;;;;5044518;28;20082;-83
2022/02/17 08:48:05;;;;;;;0.00;0.00;;;7.20;99.90;;;;;;5062634;28;20087;-83
2022/02/17 08:50:32;;;;;;;0.00;0.00;;;7.20;99.90;;;;;;5039533;28;20075;-84
2022/02/17 08:53:00;;;;;;;0.10;0.10;;;7.20;99.90;;;;;;5038620;28;20054;-89
2022/02/17 08:55:27;;;;;;;0.10;0.10;;;7.30;99.90;;;;;;5032984;28;20064;-84
2022/02/17 08:57:54;;;;;;;0.10;0.10;;;7.20;99.90;;;;;;5035333;28;20111;-86
2022/02/17 09:00:21;;;;;;;0.10;0.10;;;7.40;99.90;;;;;;5040874;28;20044;-87
2022/02/17 09:02:47;;;;;;;0.10;0.10;;;7.20;99.90;;;;;;5036181;28;20064;-87
2022/02/17 09:05:15;;;;;;;0.10;0.10;;;6.90;99.90;;;;;;5052648;28;20128;-87
2022/02/17 09:07:41;;;;;;;0.05;0.05;;;7.20;99.90;;;;;;5050613;28;20507;-86
2022/02/17 09:10:08;;;;;;;0.10;0.10;;;7.30;99.90;;;;;;5053599;28;20135;-87
2022/02/17 09:12:37;;;;;;;0.10;0.10;;;7.30;99.90;;;;;;5067797;28;20041;-87
2022/02/17 09:15:05;;;;;;;0.10;0.10;;;7.30;99.90;;;;;;5047609;28;20127;-84
2022/02/17 09:17:32;;;;;;;0.20;0.20;;;7.30;99.90;;;;;;5065291;28;20096;-84
2022/02/17 09:19:59;;;;;;;0.10;0.10;;;7.20;99.90;;;;;;5069818;28;20037;-83
2022/02/17 09:22:25;;;;;;;0.10;0.10;;;7.20;99.90;;;;;;5052897;28;20408;-85
2022/02/17 09:24:52;;;;;;;0.10;0.10;;;7.30;99.90;;;;;;5035979;28;20045;-83
2022/02/17 09:27:19;;;;;;;0.10;0.10;;;7.00;99.90;;;;;;5038790;28;20045;-86
2022/02/17 09:29:46;;;;;;;0.10;0.10;;;7.00;99.90;;;;;;5055374;28;20037;-84
2022/02/17 09:32:13;;;;;;;0.05;0.05;;;6.90;99.90;;;;;;5056664;28;20037;-86
2022/02/17 09:34:40;;;;;;;0.10;0.10;;;6.90;99.90;;;;;;5071451;28;20410;-87
2022/02/17 09:37:07;;;;;;;0.10;0.10;;;6.90;99.90;;;;;;5038446;28;20061;-88
2022/02/17 09:39:36;;;;;;;0.10;0.10;;;7.00;99.90;;;;;;5051918;28;20034;-84
2022/02/17 09:42:04;;;;;;;0.10;0.10;;;7.40;99.90;;;;;;5033908;28;20037;-84
2022/02/17 09:44:32;;;;;;;0.10;0.10;;;7.00;99.90;;;;;;5051250;28;20045;-89
2022/02/17 09:46:59;;;;;;;0.10;0.10;;;7.10;99.90;;;;;;5026484;28;20524;-88
2022/02/17 09:49:30;;;;;;;0.10;0.10;;;7.10;99.90;;;;;;5038754;28;20041;-87
2022/02/17 09:51:57;;;;;;;0.05;0.05;;;7.10;99.90;;;;;;5022815;28;20045;-88
2022/02/17 09:54:24;;;;;;;0.10;0.10;;;7.10;99.90;;;;;;5050837;28;20041;-87
2022/02/17 09:56:51;;;;;;;0.10;0.10;;;7.20;99.90;;;;;;5063899;28;20123;-83
2022/02/17 09:59:19;;;;;;;0.10;0.10;;;7.20;99.90;;;;;;5066498;28;20796;-84
2022/02/17 10:02:02;;;;;;;0.10;0.10;;;7.10;99.90;;;;;;5056589;28;20045;-84
2022/02/17 10:04:31;;;;;;;0.10;0.10;;;7.20;99.90;;;;;;5052369;28;20096;-84
2022/02/17 10:07:00;;;;;;;0.10;0.10;;;7.30;99.90;;;;;;5036970;28;20049;-86
2022/02/17 10:09:41;;;;;;;0.10;0.10;;;7.30;99.90;;;;;;5053453;28;20041;-84
2022/02/17 10:12:10;;;;;;;0.10;0.10;;;7.30;99.90;;;;;;5052798;28;20049;-88
2022/02/17 10:14:38;;;;;;;0.10;0.10;;;7.30;99.90;;;;;;5050807;28;20040;-86
2022/02/17 10:17:09;;;;;;;0.10;0.10;;;7.30;99.90;;;;;;5056367;28;20037;-86
2022/02/17 10:19:37;;;;;;;0.10;0.10;;;7.40;99.90;;;;;;5071538;28;20045;-87
2022/02/17 10:22:11;;;;;;;0.10;0.10;;;7.40;99.90;;;;;;5072074;28;20041;-83
2022/02/17 10:24:44;;;;;;;0.63;0.47;;;7.40;99.90;;;;;;5071512;28;20045;-86
2022/02/17 10:27:15;;;;;;;0.10;0.10;;;7.40;99.90;;;;;;5072346;28;20041;-84
2022/02/17 10:30:13;;;;;;;0.00;0.00;;;7.50;99.90;;;;;;5062163;28;20211;-88
2022/02/17 10:32:56;;;;;;;0.10;0.10;;;7.50;99.90;;;;;;5051853;28;20038;-83
2022/02/17 10:35:24;;;;;;;0.10;0.10;;;7.50;99.90;;;;;;5065758;28;20033;-88
2022/02/17 10:37:52;;;;;;;0.10;0.10;;;7.60;99.90;;;;;;5055204;28;20087;-84
2022/02/17 10:40:27;;;;;;;0.10;0.10;;;7.60;99.90;;;;;;5071900;28;20132;-84
2022/02/17 10:43:13;;;;;;;0.00;0.00;;;7.60;99.90;;;;;;5071915;28;20044;-83
2022/02/17 10:45:50;;;;;;;0.10;0.10;;;7.60;99.90;;;;;;5058346;28;20392;-83
2022/02/17 10:48:27;;;;;;;0.10;0.10;;;7.70;99.90;;;;;;5057283;28;20074;-86
2022/02/17 10:51:11;;;;;;;0.10;0.10;;;7.70;99.90;;;;;;5051395;28;20051;-83
2022/02/17 10:53:46;;;;;;;0.10;0.10;;;7.70;99.90;;;;;;5051974;28;20107;-87
2022/02/17 10:56:21;;;;;;;0.10;0.10;;;7.80;99.90;;;;;;5072425;28;20124;-87
2022/02/17 10:58:50;;;;;;;0.05;0.05;;;7.80;99.90;;;;;;5088392;28;20083;-84
2022/02/17 11:01:19;;;;;;;0.10;0.10;;;7.90;99.90;;;;;;5070701;28;20091;-84
2022/02/17 11:03:50;;;;;;;0.08;0.08;;;8.00;99.90;;;;;;5070515;28;20533;-84
2022/02/17 11:06:18;;;;;;;0.10;0.10;;;8.10;99.90;;;;;;5061725;28;20036;-84
2022/02/17 11:08:49;;;;;;;0.10;0.10;;;8.20;99.90;;;;;;5035715;28;20379;-88
2022/02/17 11:11:18;;;;;;;0.10;0.10;;;8.20;99.90;;;;;;5036073;28;20052;-84
2022/02/17 11:13:50;;;;;;;0.00;0.00;;;8.20;99.90;;;;;;5055215;28;20036;-84
2022/02/17 11:16:22;;;;;;;0.10;0.10;;;8.20;99.90;;;;;;5064885;28;20049;-84
2022/02/17 11:18:51;;;;;;;0.10;0.10;;;8.10;99.90;;;;;;5034680;28;20521;-84
2022/02/17 11:21:18;;;;;;;0.10;0.10;;;8.10;99.90;;;;;;5060484;28;20049;-87
2022/02/17 11:23:46;;;;;;;0.10;0.10;;;8.10;99.90;;;;;;5038430;28;20133;-88
2022/02/17 11:26:23;;;;;;;0.05;0.05;;;8.10;99.90;;;;;;5055120;28;20036;-88
2022/02/17 11:28:50;;;;;;;0.10;0.10;;;8.10;99.90;;;;;;5070588;28;20045;-84
2022/02/17 11:31:17;;;;;;;0.10;0.10;;;8.10;99.90;;;;;;5052154;28;20059;-86
2022/02/17 11:33:58;;;;;;;0.10;0.10;;;8.20;99.90;;;;;;5034791;28;20044;-87
2022/02/17 11:36:27;;;;;;;0.10;0.10;;;8.20;99.90;;;;;;5056692;28;20041;-87
2022/02/17 11:39:05;;;;;;;0.10;0.10;;;8.20;99.90;;;;;;5065421;28;20573;-83
2022/02/17 11:41:37;;;;;;;0.10;0.10;;;8.20;99.90;;;;;;5060460;28;20045;-83
2022/02/17 11:44:16;;;;;;;0.10;0.10;;;8.30;99.90;;;;;;5055172;28;20028;-88
2022/02/17 11:46:48;;;;;;;0.10;0.10;;;8.40;99.90;;;;;;5039011;28;20046;-88
2022/02/17 11:49:30;;;;;;;0.00;0.00;;;8.40;99.90;;;;;;5039631;28;20038;-83
2022/02/17 11:52:13;;;;;;;0.10;0.10;;;8.50;99.90;;;;;;5049882;28;20056;-87
2022/02/17 11:55:01;;;;;;;0.10;0.10;;;8.60;99.90;;;;;;5015439;28;20034;-83
2022/02/17 11:57:32;;;;;;;0.10;0.10;;;8.70;99.90;;;;;;5056291;28;20087;-87
2022/02/17 12:00:26;;;;;;;0.10;0.10;;;8.60;99.90;;;;;;5032505;28;20029;-86
2022/02/17 12:02:55;;;;;;;0.55;0.30;;;8.60;99.90;;;;;;5047073;28;20099;-87
2022/02/17 12:05:23;;;;;;;0.10;0.10;;;8.60;99.90;;;;;;5060029;28;20537;-87
2022/02/17 12:07:49;;;;;;;0.10;0.10;;;8.60;99.90;;;;;;5026014;28;20037;-88
2022/02/17 12:10:35;;;;;;;0.00;0.00;;;8.60;99.90;;;;;;5028152;28;20379;-87
2022/02/17 12:13:09;;;;;;;0.00;0.00;;;8.70;99.90;;;;;;5050629;28;20042;-88
2022/02/17 12:15:44;;;;;;;0.03;0.03;;;8.70;99.90;;;;;;5035657;28;20065;-87
2022/02/17 12:18:10;;;;;;;0.00;0.00;;;8.70;99.90;;;;;;5046547;28;20525;-83
2022/02/17 12:20:37;;;;;;;0.00;0.00;;;8.70;99.90;;;;;;5030887;28;20065;-87
2022/02/17 12:23:07;;;;;;;0.00;0.00;;;8.80;99.90;;;;;;5028448;28;20124;-82
2022/02/17 12:25:47;;;;;;;0.10;0.10;;;8.80;99.90;;;;;;5027763;28;20510;-87
2022/02/17 12:28:16;;;;;;;0.10;0.10;;;8.80;99.90;;;;;;5043375;28;20117;-84
2022/02/17 12:30:47;;;;;;;0.00;0.00;;;8.90;99.90;;;;;;5041233;28;20041;-88
2022/02/17 12:33:17;;;;;;;0.10;0.10;;;8.90;99.90;;;;;;5040559;28;20049;-84
2022/02/17 12:36:02;;;;;;;0.10;0.10;;;8.90;99.90;;;;;;5028781;28;20048;-84
2022/02/17 12:38:31;;;;;;;0.10;0.10;;;8.90;99.90;;;;;;5050037;28;20495;-87
2022/02/17 12:41:01;;;;;;;0.10;0.10;;;8.90;99.90;;;;;;5032985;28;20498;-84
2022/02/17 12:43:38;;;;;;;0.00;0.00;;;9.00;99.90;;;;;;5050097;28;20507;-88
2022/02/17 12:46:16;;;;;;;0.10;0.10;;;9.10;99.90;;;;;;5065919;28;20109;-89
2022/02/17 12:48:43;;;;;;;0.10;0.10;;;9.20;99.90;;;;;;5069829;28;20049;-88
2022/02/17 12:51:21;;;;;;;0.00;0.00;;;9.10;99.90;;;;;;5052844;28;20041;-89
2022/02/17 12:53:50;;;;;;;0.00;0.00;;;9.00;99.90;;;;;;5052039;28;20052;-88
2022/02/17 12:56:22;;;;;;;0.10;0.10;;;9.00;99.90;;;;;;5057661;28;20056;-88
2022/02/17 12:58:49;;;;;;;0.05;0.05;;;8.90;99.90;;;;;;5054045;28;20897;-84
2022/02/17 13:01:26;;;;;;;0.10;0.10;;;8.80;99.90;;;;;;5079769;28;20115;-89
2022/02/17 13:03:54;;;;;;;0.40;0.40;;;8.80;99.90;;;;;;5073138;28;20183;-84
2022/02/17 13:06:25;;;;;;;0.00;0.00;;;8.80;99.90;;;;;;5073373;28;20045;-84